createdAt,value
2023-03-27T10:34:03.708Z,21.20
2023-03-27T10:36:41.008Z,21.10
2023-03-27T10:39:16.686Z,20.90
2023-03-27T10:41:50.661Z,23.50
2023-03-27T10:44:26.217Z,22.60
2023-03-27T10:46:57.047Z,22.40
2023-03-27T10:49:34.937Z,22.10
2023-03-27T10:52:18.216Z,22.40
2023-03-27T10:54:51.416Z,23.40
2023-03-27T10:57:25.088Z,23.70
2023-03-27T11:00:00.911Z,23.70
2023-03-27T11:02:39.355Z,25.50
2023-03-27T11:05:15.075Z,24.50
2023-03-27T11:07:53.326Z,24.00
2023-03-27T11:10:27.044Z,24.00
2023-03-27T11:12:59.504Z,23.40
2023-03-27T11:15:33.193Z,23.30
2023-03-27T11:18:09.575Z,22.80
2023-03-27T11:20:44.620Z,23.40
2023-03-27T11:23:25.066Z,22.70
2023-03-27T11:26:00.129Z,22.20
2023-03-27T11:28:43.096Z,20.00
2023-03-27T11:31:22.164Z,19.50
2023-03-27T11:33:55.490Z,20.40
2023-03-27T11:36:37.835Z,19.20
2023-03-27T11:39:17.039Z,18.10
2023-03-27T11:41:53.477Z,17.60
2023-03-27T11:44:24.194Z,17.00
2023-03-27T11:47:10.507Z,16.60
2023-03-27T11:50:04.240Z,14.40
2023-03-27T11:52:47.030Z,16.30
2023-03-27T11:55:31.347Z,16.40
2023-03-27T11:58:17.700Z,15.10
2023-03-27T12:00:52.774Z,18.40
2023-03-27T12:04:05.463Z,16.60
2023-03-27T12:06:43.529Z,16.30
2023-03-27T12:09:31.499Z,16.70
2023-03-27T12:15:02.348Z,17.50
2023-03-27T12:17:47.777Z,17.40
2023-03-27T12:20:54.136Z,15.60
2023-03-27T12:24:18.116Z,15.70
2023-03-27T12:27:20.717Z,16.40
2023-03-27T12:30:03.531Z,16.40
2023-03-27T12:33:01.868Z,15.50
2023-03-27T12:35:35.255Z,15.70
2023-03-27T12:38:08.892Z,16.30
2023-03-27T12:40:43.695Z,15.70
2023-03-27T12:43:28.294Z,18.20
2023-03-27T12:48:58.814Z,15.10
2023-03-27T12:51:48.475Z,16.60
2023-03-27T12:54:27.758Z,15.90
2023-03-27T12:57:08.415Z,16.20
2023-03-27T12:59:41.855Z,16.50
2023-03-27T13:02:42.706Z,16.10
2023-03-27T13:05:45.889Z,14.70
2023-03-27T13:08:37.932Z,16.00
2023-03-27T13:14:25.082Z,14.80
2023-03-27T13:17:02.178Z,15.70
2023-03-27T13:19:43.308Z,13.90
2023-03-27T13:22:23.784Z,14.00
2023-03-27T13:25:26.560Z,15.60
2023-03-27T13:28:20.929Z,13.50
2023-03-27T13:30:52.449Z,14.70
2023-03-27T13:33:29.623Z,12.50
2023-03-27T13:36:09.359Z,15.10
2023-03-27T13:39:21.279Z,14.70
2023-03-27T13:42:11.828Z,15.80
2023-03-27T13:44:50.678Z,14.60
2023-03-27T13:47:54.321Z,14.90
2023-03-27T13:50:53.428Z,15.70
2023-03-27T13:53:42.564Z,15.30
2023-03-27T13:56:50.048Z,14.40
2023-03-27T13:59:58.820Z,13.10
2023-03-27T14:02:58.612Z,13.80
2023-03-27T14:06:05.114Z,13.40
2023-03-27T14:08:44.082Z,11.80
2023-03-27T14:11:30.077Z,13.90
2023-03-27T14:14:26.659Z,14.70
2023-03-27T14:17:28.657Z,15.30
2023-03-27T14:20:28.726Z,15.50
2023-03-27T14:23:04.766Z,15.20
2023-03-27T14:28:10.531Z,13.00
2023-03-27T14:30:48.441Z,13.60
2023-03-27T14:33:22.215Z,13.30
2023-03-27T14:35:58.488Z,13.30
2023-03-27T14:38:31.693Z,13.60
2023-03-27T14:41:03.431Z,12.20
2023-03-27T14:43:34.202Z,13.80
2023-03-27T14:46:07.306Z,12.60
2023-03-27T14:51:16.850Z,12.90
2023-03-27T14:53:51.243Z,13.20
2023-03-27T14:56:29.593Z,13.70
2023-03-27T14:59:03.437Z,14.80
2023-03-27T15:01:35.370Z,14.80
2023-03-27T15:04:11.351Z,13.30
2023-03-27T15:06:41.935Z,14.50
2023-03-27T15:09:19.444Z,14.60
2023-03-27T15:11:52.116Z,13.30
2023-03-27T15:14:29.069Z,13.30
2023-03-27T15:17:04.279Z,12.60
2023-03-27T15:19:43.400Z,12.10
2023-03-27T15:22:24.595Z,12.40
2023-03-27T15:24:59.171Z,14.10
2023-03-27T15:27:32.867Z,11.20
2023-03-27T15:30:07.602Z,12.40
2023-03-27T15:32:50.341Z,12.00
2023-03-27T15:35:36.634Z,11.10
2023-03-27T15:38:09.770Z,12.50
2023-03-27T15:40:43.251Z,12.30
2023-03-27T15:43:27.074Z,11.90
2023-03-27T15:46:15.138Z,13.10
2023-03-27T15:48:46.151Z,11.00
2023-03-27T15:51:32.908Z,13.40
2023-03-27T15:54:29.849Z,12.60
2023-03-27T15:57:09.685Z,12.70
2023-03-27T15:59:52.254Z,13.40
2023-03-27T16:02:28.869Z,13.30
2023-03-27T16:05:00.936Z,12.50
2023-03-27T16:07:47.417Z,12.10
2023-03-27T16:10:32.132Z,12.60
2023-03-27T16:13:09.323Z,11.10
2023-03-27T16:15:41.475Z,12.10
2023-03-27T16:18:22.188Z,12.70
2023-03-27T16:20:52.472Z,12.70
2023-03-27T16:25:56.761Z,12.80
2023-03-27T16:28:29.920Z,11.70
2023-03-27T16:31:00.884Z,13.60
2023-03-27T16:33:31.276Z,13.60
2023-03-27T16:36:01.725Z,12.70
2023-03-27T16:38:34.657Z,12.70
2023-03-27T16:41:07.906Z,12.30
2023-03-27T16:46:09.345Z,12.30
2023-03-27T16:48:39.613Z,13.80
2023-03-27T16:51:09.921Z,13.30
2023-03-27T16:53:40.102Z,13.30
2023-03-27T16:56:13.463Z,13.40
2023-03-27T16:58:46.956Z,10.80
2023-03-27T17:01:17.322Z,11.70
2023-03-27T17:08:52.763Z,9.50
2023-03-27T17:11:25.782Z,12.90
2023-03-27T17:13:56.103Z,10.50
2023-03-27T17:16:26.351Z,11.80
2023-03-27T17:21:29.247Z,10.70
2023-03-27T17:26:36.866Z,11.40
2023-03-27T17:29:08.765Z,11.80
2023-03-27T17:36:49.595Z,11.20
2023-03-27T17:41:57.910Z,11.20
2023-03-27T17:46:58.484Z,11.90
2023-03-27T17:49:29.953Z,11.10
2023-03-27T17:57:03.826Z,11.20
2023-03-27T17:59:33.968Z,12.50
2023-03-27T18:04:34.928Z,9.20
2023-03-27T18:12:09.160Z,8.70
2023-03-27T18:14:39.495Z,11.30
2023-03-27T18:17:09.666Z,9.70
2023-03-27T18:19:40.251Z,10.30
2023-03-27T18:22:10.393Z,9.90
2023-03-27T18:24:40.916Z,12.30
2023-03-27T18:27:13.702Z,11.00
2023-03-27T18:34:44.874Z,11.70
2023-03-27T18:37:15.802Z,12.00
2023-03-27T18:39:46.939Z,11.80
2023-03-27T18:42:19.691Z,11.00
2023-03-27T18:44:49.882Z,9.80
2023-03-27T18:47:20.027Z,9.80
2023-03-27T18:49:50.339Z,10.80
2023-03-27T18:52:20.520Z,12.00
2023-03-27T18:54:50.822Z,8.80
2023-03-27T18:59:55.301Z,11.50
2023-03-27T19:02:25.203Z,10.70
2023-03-27T19:07:26.515Z,11.60
2023-03-27T19:09:57.463Z,11.40
2023-03-27T19:12:30.269Z,11.60
2023-03-27T19:15:09.762Z,11.20
2023-03-27T19:20:20.022Z,10.60
2023-03-27T19:25:21.632Z,10.90
2023-03-27T19:27:54.561Z,11.70
2023-03-27T19:30:25.203Z,11.90
2023-03-27T19:37:57.314Z,11.80
2023-03-27T19:40:27.868Z,11.00
2023-03-27T19:43:00.694Z,10.60
2023-03-27T19:48:01.364Z,11.70
2023-03-27T19:50:31.702Z,12.00
2023-03-27T19:53:08.636Z,11.50
2023-03-27T19:58:12.453Z,11.40
2023-03-27T20:00:44.647Z,10.70
2023-03-27T20:03:16.939Z,10.80
2023-03-27T20:05:50.537Z,10.80
2023-03-27T20:10:52.358Z,11.00
2023-03-27T20:13:25.168Z,10.20
2023-03-27T20:15:56.276Z,11.00
2023-03-27T20:21:05.386Z,10.30
2023-03-27T20:23:37.757Z,8.00
2023-03-27T20:28:41.061Z,11.20
2023-03-27T20:31:11.306Z,10.30
2023-03-27T20:36:12.213Z,11.10
2023-03-27T20:38:42.724Z,11.00
2023-03-27T20:43:51.122Z,10.40
2023-03-27T20:46:21.564Z,8.60
2023-03-27T20:53:58.950Z,10.30
2023-03-27T20:56:29.212Z,10.30
2023-03-27T21:01:34.501Z,11.10
2023-03-27T21:06:37.256Z,9.80
2023-03-27T21:09:08.322Z,9.90
2023-03-27T21:11:39.097Z,9.90
2023-03-27T21:14:11.873Z,10.00
2023-03-27T21:19:13.263Z,9.80
2023-03-27T21:21:43.517Z,10.20
2023-03-27T21:24:13.960Z,10.10
2023-03-27T21:26:44.190Z,11.20
2023-03-27T21:29:17.095Z,10.80
2023-03-27T21:31:47.456Z,8.00
2023-03-27T21:34:17.665Z,9.80
2023-03-27T21:36:48.226Z,9.90
2023-03-27T21:44:21.854Z,9.60
2023-03-27T21:46:52.068Z,9.40
2023-03-27T21:49:22.287Z,10.00
2023-03-27T21:51:52.470Z,10.50
2023-03-27T21:56:53.047Z,9.50
2023-03-27T22:04:28.051Z,9.50
2023-03-27T22:06:58.231Z,10.10
2023-03-27T22:09:28.329Z,8.90
2023-03-27T22:11:59.349Z,9.40
2023-03-27T22:14:32.230Z,10.10
2023-03-27T22:17:02.493Z,8.90
2023-03-27T22:22:03.069Z,7.70
2023-03-27T22:29:36.829Z,9.00
2023-03-27T22:32:07.363Z,9.10
2023-03-27T22:34:37.548Z,6.40
2023-03-27T22:39:38.012Z,6.90
2023-03-27T22:42:08.701Z,9.60
2023-03-27T22:44:41.748Z,8.50
2023-03-27T22:47:12.208Z,9.80
2023-03-27T22:49:42.318Z,9.60
2023-03-27T22:52:12.517Z,6.20
2023-03-27T22:54:42.739Z,9.60
2023-03-27T22:57:13.351Z,9.50
2023-03-27T23:04:47.049Z,6.30
2023-03-27T23:07:17.226Z,9.30
2023-03-27T23:09:47.361Z,9.40
2023-03-27T23:12:17.539Z,9.40
2023-03-27T23:14:50.809Z,8.60
2023-03-27T23:24:52.315Z,8.30
2023-03-27T23:29:55.555Z,9.10
2023-03-27T23:39:56.816Z,8.10
2023-03-27T23:42:27.043Z,9.40
2023-03-27T23:44:59.769Z,9.10
2023-03-27T23:52:30.975Z,8.90
2023-03-27T23:55:01.299Z,6.90
